sensor_id;sensor_type;location;lat;lon;timestamp;P1;durP1;ratioP1;P2;durP2;ratioP2
62852;SDS011;49205;44.868;38.140;2023-02-11T05:00:38;45.20;;;23.52;;
62852;SDS011;49205;44.868;38.140;2023-02-11T05:03:08;45.33;;;22.15;;
62852;SDS011;49205;44.868;38.140;2023-02-11T05:05:37;42.78;;;23.52;;
62852;SDS011;49205;44.868;38.140;2023-02-11T05:08:07;45.95;;;22.15;;
62852;SDS011;49205;44.868;38.140;2023-02-11T05:10:37;55.40;;;24.10;;
62852;SDS011;49205;44.868;38.140;2023-02-11T05:13:06;43.20;;;20.85;;
62852;SDS011;49205;44.868;38.140;2023-02-11T05:15:35;48.87;;;21.48;;
62852;SDS011;49205;44.868;38.140;2023-02-11T05:18:04;39.73;;;21.65;;
62852;SDS011;49205;44.868;38.140;2023-02-11T05:20:33;46.45;;;23.05;;
62852;SDS011;49205;44.868;38.140;2023-02-11T05:23:03;43.45;;;24.15;;
62852;SDS011;49205;44.868;38.140;2023-02-11T05:25:32;45.73;;;23.02;;
62852;SDS011;49205;44.868;38.140;2023-02-11T05:28:02;43.98;;;22.90;;
62852;SDS011;49205;44.868;38.140;2023-02-11T05:30:31;45.50;;;23.90;;
62852;SDS011;49205;44.868;38.140;2023-02-11T05:33:01;37.33;;;21.40;;
62852;SDS011;49205;44.868;38.140;2023-02-11T05:35:30;41.25;;;20.17;;
62852;SDS011;49205;44.868;38.140;2023-02-11T05:37:59;43.92;;;24.60;;
62852;SDS011;49205;44.868;38.140;2023-02-11T05:40:28;40.92;;;22.80;;
62852;SDS011;49205;44.868;38.140;2023-02-11T05:42:57;39.92;;;22.20;;
62852;SDS011;49205;44.868;38.140;2023-02-11T05:45:26;40.10;;;21.33;;
62852;SDS011;49205;44.868;38.140;2023-02-11T05:47:55;40.08;;;20.37;;
62852;SDS011;49205;44.868;38.140;2023-02-11T05:50:24;39.55;;;21.48;;
62852;SDS011;49205;44.868;38.140;2023-02-11T05:52:53;44.25;;;23.05;;
62852;SDS011;49205;44.868;38.140;2023-02-11T05:55:22;42.40;;;22.45;;
62852;SDS011;49205;44.868;38.140;2023-02-11T05:57:51;49.00;;;26.77;;
62852;SDS011;49205;44.868;38.140;2023-02-11T06:00:20;48.30;;;25.50;;
62852;SDS011;49205;44.868;38.140;2023-02-11T06:02:49;43.65;;;23.57;;
62852;SDS011;49205;44.868;38.140;2023-02-11T06:05:18;46.20;;;23.60;;
62852;SDS011;49205;44.868;38.140;2023-02-11T06:07:47;50.20;;;26.70;;
62852;SDS011;49205;44.868;38.140;2023-02-11T06:10:16;41.33;;;23.90;;
62852;SDS011;49205;44.868;38.140;2023-02-11T06:12:45;51.15;;;24.27;;
62852;SDS011;49205;44.868;38.140;2023-02-11T06:15:15;39.95;;;22.85;;
62852;SDS011;49205;44.868;38.140;2023-02-11T06:17:44;47.35;;;24.47;;
62852;SDS011;49205;44.868;38.140;2023-02-11T06:20:13;50.67;;;21.97;;
62852;SDS011;49205;44.868;38.140;2023-02-11T06:22:42;47.48;;;23.05;;
62852;SDS011;49205;44.868;38.140;2023-02-11T06:25:11;44.18;;;22.50;;
62852;SDS011;49205;44.868;38.140;2023-02-11T06:27:39;43.63;;;20.88;;
62852;SDS011;49205;44.868;38.140;2023-02-11T06:30:09;45.30;;;20.80;;
62852;SDS011;49205;44.868;38.140;2023-02-11T06:32:39;38.88;;;22.37;;
62852;SDS011;49205;44.868;38.140;2023-02-11T06:35:08;40.67;;;21.82;;
62852;SDS011;49205;44.868;38.140;2023-02-11T06:37:37;38.85;;;20.62;;
62852;SDS011;49205;44.868;38.140;2023-02-11T06:40:07;38.75;;;19.85;;
62852;SDS011;49205;44.868;38.140;2023-02-11T06:42:36;39.10;;;19.75;;
62852;SDS011;49205;44.868;38.140;2023-02-11T06:45:05;32.42;;;16.97;;
62852;SDS011;49205;44.868;38.140;2023-02-11T06:47:36;32.98;;;17.48;;
62852;SDS011;49205;44.868;38.140;2023-02-11T06:50:06;36.42;;;18.67;;
62852;SDS011;49205;44.868;38.140;2023-02-11T06:52:37;31.23;;;15.80;;
62852;SDS011;49205;44.868;38.140;2023-02-11T06:55:06;27.20;;;15.58;;
62852;SDS011;49205;44.868;38.140;2023-02-11T06:57:35;34.35;;;17.07;;
62852;SDS011;49205;44.868;38.140;2023-02-11T07:00:04;29.02;;;16.27;;
62852;SDS011;49205;44.868;38.140;2023-02-11T07:02:34;31.00;;;15.95;;
62852;SDS011;49205;44.868;38.140;2023-02-11T07:05:04;31.30;;;17.27;;
62852;SDS011;49205;44.868;38.140;2023-02-11T07:07:34;33.25;;;18.02;;
62852;SDS011;49205;44.868;38.140;2023-02-11T07:10:03;29.72;;;17.37;;
62852;SDS011;49205;44.868;38.140;2023-02-11T07:12:32;34.00;;;17.27;;
62852;SDS011;49205;44.868;38.140;2023-02-11T07:15:01;35.03;;;16.25;;
62852;SDS011;49205;44.868;38.140;2023-02-11T07:17:30;30.43;;;15.20;;
62852;SDS011;49205;44.868;38.140;2023-02-11T07:20:01;35.20;;;18.50;;
62852;SDS011;49205;44.868;38.140;2023-02-11T07:22:30;31.87;;;17.67;;
62852;SDS011;49205;44.868;38.140;2023-02-11T07:25:00;35.08;;;16.70;;
62852;SDS011;49205;44.868;38.140;2023-02-11T07:27:30;43.10;;;19.87;;
62852;SDS011;49205;44.868;38.140;2023-02-11T07:29:59;36.17;;;18.15;;
62852;SDS011;49205;44.868;38.140;2023-02-11T07:32:28;33.35;;;17.82;;
62852;SDS011;49205;44.868;38.140;2023-02-11T07:34:57;35.60;;;18.52;;
62852;SDS011;49205;44.868;38.140;2023-02-11T07:37:26;32.90;;;16.48;;
62852;SDS011;49205;44.868;38.140;2023-02-11T07:39:55;35.95;;;19.10;;
62852;SDS011;49205;44.868;38.140;2023-02-11T07:42:24;33.48;;;18.45;;
62852;SDS011;49205;44.868;38.140;2023-02-11T07:44:53;36.63;;;18.40;;
62852;SDS011;49205;44.868;38.140;2023-02-11T07:47:22;31.17;;;18.30;;
62852;SDS011;49205;44.868;38.140;2023-02-11T07:49:51;35.60;;;17.25;;
62852;SDS011;49205;44.868;38.140;2023-02-11T07:52:20;31.82;;;16.85;;
62852;SDS011;49205;44.868;38.140;2023-02-11T07:54:49;30.85;;;15.65;;
62852;SDS011;49205;44.868;38.140;2023-02-11T07:57:18;26.97;;;15.48;;
62852;SDS011;49205;44.868;38.140;2023-02-11T07:59:47;26.73;;;15.55;;
62852;SDS011;49205;44.868;38.140;2023-02-11T08:02:16;33.05;;;17.52;;
62852;SDS011;49205;44.868;38.140;2023-02-11T08:04:45;29.92;;;15.83;;
62852;SDS011;49205;44.868;38.140;2023-02-11T08:07:15;40.98;;;18.05;;
62852;SDS011;49205;44.868;38.140;2023-02-11T08:09:45;34.00;;;16.77;;
62852;SDS011;49205;44.868;38.140;2023-02-11T08:12:14;30.40;;;17.17;;
62852;SDS011;49205;44.868;38.140;2023-02-11T08:14:43;34.43;;;18.10;;
62852;SDS011;49205;44.868;38.140;2023-02-11T08:17:12;30.35;;;17.73;;
62852;SDS011;49205;44.868;38.140;2023-02-11T08:19:41;29.25;;;17.90;;
62852;SDS011;49205;44.868;38.140;2023-02-11T08:22:11;33.30;;;16.93;;
62852;SDS011;49205;44.868;38.140;2023-02-11T08:24:40;31.97;;;18.17;;
62852;SDS011;49205;44.868;38.140;2023-02-11T08:27:09;33.75;;;18.15;;
62852;SDS011;49205;44.868;38.140;2023-02-11T08:29:38;34.60;;;17.82;;
62852;SDS011;49205;44.868;38.140;2023-02-11T08:32:07;37.80;;;19.90;;
62852;SDS011;49205;44.868;38.140;2023-02-11T08:34:36;41.88;;;17.87;;
62852;SDS011;49205;44.868;38.140;2023-02-11T08:37:06;31.07;;;16.23;;
62852;SDS011;49205;44.868;38.140;2023-02-11T08:39:35;28.30;;;14.70;;
62852;SDS011;49205;44.868;38.140;2023-02-11T08:42:04;37.17;;;18.10;;
62852;SDS011;49205;44.868;38.140;2023-02-11T08:44:33;33.58;;;15.90;;
62852;SDS011;49205;44.868;38.140;2023-02-11T08:47:02;24.57;;;12.65;;
62852;SDS011;49205;44.868;38.140;2023-02-11T08:49:31;27.13;;;13.45;;
62852;SDS011;49205;44.868;38.140;2023-02-11T08:52:01;30.55;;;14.70;;
62852;SDS011;49205;44.868;38.140;2023-02-11T08:54:30;27.55;;;15.65;;
62852;SDS011;49205;44.868;38.140;2023-02-11T08:56:59;37.03;;;15.13;;
62852;SDS011;49205;44.868;38.140;2023-02-11T08:59:29;25.85;;;12.75;;
62852;SDS011;49205;44.868;38.140;2023-02-11T09:01:57;27.80;;;15.23;;
62852;SDS011;49205;44.868;38.140;2023-02-11T09:04:27;28.95;;;13.75;;
62852;SDS011;49205;44.868;38.140;2023-02-11T09:06:56;23.12;;;12.07;;
62852;SDS011;49205;44.868;38.140;2023-02-11T09:09:25;24.92;;;11.65;;
62852;SDS011;49205;44.868;38.140;2023-02-11T09:11:54;20.35;;;11.28;;
62852;SDS011;49205;44.868;38.140;2023-02-11T09:14:23;25.62;;;12.95;;
62852;SDS011;49205;44.868;38.140;2023-02-11T09:16:52;24.85;;;13.35;;
62852;SDS011;49205;44.868;38.140;2023-02-11T09:19:21;27.45;;;13.13;;
62852;SDS011;49205;44.868;38.140;2023-02-11T09:21:51;24.18;;;14.38;;
62852;SDS011;49205;44.868;38.140;2023-02-11T09:24:20;27.67;;;13.93;;
62852;SDS011;49205;44.868;38.140;2023-02-11T09:26:49;26.00;;;14.13;;
62852;SDS011;49205;44.868;38.140;2023-02-11T09:29:18;29.05;;;13.38;;
62852;SDS011;49205;44.868;38.140;2023-02-11T09:31:47;25.35;;;11.78;;
62852;SDS011;49205;44.868;38.140;2023-02-11T09:34:16;27.42;;;14.20;;
62852;SDS011;49205;44.868;38.140;2023-02-11T09:36:45;20.00;;;11.73;;
62852;SDS011;49205;44.868;38.140;2023-02-11T09:39:15;20.95;;;11.28;;
62852;SDS011;49205;44.868;38.140;2023-02-11T09:44:40;22.95;;;11.68;;
62852;SDS011;49205;44.868;38.140;2023-02-11T09:50:11;12.00;;;6.95;;
62852;SDS011;49205;44.868;38.140;2023-02-11T09:55:21;22.15;;;11.12;;
62852;SDS011;49205;44.868;38.140;2023-02-11T09:57:59;22.50;;;11.55;;
62852;SDS011;49205;44.868;38.140;2023-02-11T10:03:36;15.63;;;9.70;;
62852;SDS011;49205;44.868;38.140;2023-02-11T10:06:12;18.32;;;9.68;;
62852;SDS011;49205;44.868;38.140;2023-02-11T10:12:05;20.60;;;11.05;;
62852;SDS011;49205;44.868;38.140;2023-02-11T10:14:48;19.77;;;11.93;;
62852;SDS011;49205;44.868;38.140;2023-02-11T10:20:32;21.60;;;10.72;;
62852;SDS011;49205;44.868;38.140;2023-02-11T10:23:12;17.87;;;10.90;;
62852;SDS011;49205;44.868;38.140;2023-02-11T10:25:47;17.12;;;9.75;;
62852;SDS011;49205;44.868;38.140;2023-02-11T10:28:21;16.97;;;8.70;;
62852;SDS011;49205;44.868;38.140;2023-02-11T10:33:56;17.40;;;9.93;;
62852;SDS011;49205;44.868;38.140;2023-02-11T10:36:28;19.00;;;10.75;;
62852;SDS011;49205;44.868;38.140;2023-02-11T10:38:59;19.55;;;9.78;;
62852;SDS011;49205;44.868;38.140;2023-02-11T10:41:35;23.75;;;12.53;;
62852;SDS011;49205;44.868;38.140;2023-02-11T10:44:05;10.25;;;5.37;;
62852;SDS011;49205;44.868;38.140;2023-02-11T10:46:35;8.95;;;5.97;;
62852;SDS011;49205;44.868;38.140;2023-02-11T10:49:05;17.50;;;8.93;;
62852;SDS011;49205;44.868;38.140;2023-02-11T10:51:34;15.98;;;8.35;;
62852;SDS011;49205;44.868;38.140;2023-02-11T10:56:37;13.20;;;9.55;;
62852;SDS011;49205;44.868;38.140;2023-02-11T10:59:20;16.35;;;9.08;;
62852;SDS011;49205;44.868;38.140;2023-02-11T11:02:03;23.42;;;11.10;;
62852;SDS011;49205;44.868;38.140;2023-02-11T11:07:16;16.12;;;8.40;;
62852;SDS011;49205;44.868;38.140;2023-02-11T11:09:50;16.32;;;8.90;;
62852;SDS011;49205;44.868;38.140;2023-02-11T11:15:22;18.17;;;10.18;;
62852;SDS011;49205;44.868;38.140;2023-02-11T11:18:09;23.92;;;12.23;;
62852;SDS011;49205;44.868;38.140;2023-02-11T11:20:55;19.25;;;9.78;;
62852;SDS011;49205;44.868;38.140;2023-02-11T11:23:26;17.90;;;8.95;;
62852;SDS011;49205;44.868;38.140;2023-02-11T11:26:09;17.52;;;10.63;;
62852;SDS011;49205;44.868;38.140;2023-02-11T11:31:33;13.88;;;7.72;;
62852;SDS011;49205;44.868;38.140;2023-02-11T11:36:48;8.75;;;6.65;;
62852;SDS011;49205;44.868;38.140;2023-02-11T11:39:19;13.55;;;8.93;;
62852;SDS011;49205;44.868;38.140;2023-02-11T11:41:57;15.70;;;9.90;;
62852;SDS011;49205;44.868;38.140;2023-02-11T11:44:24;10.90;;;5.83;;
62852;SDS011;49205;44.868;38.140;2023-02-11T11:49:50;13.48;;;7.05;;
62852;SDS011;49205;44.868;38.140;2023-02-11T11:52:43;12.68;;;6.85;;
62852;SDS011;49205;44.868;38.140;2023-02-11T11:55:19;11.15;;;5.83;;
62852;SDS011;49205;44.868;38.140;2023-02-11T11:57:50;14.78;;;8.65;;
62852;SDS011;49205;44.868;38.140;2023-02-11T12:00:27;18.52;;;9.70;;
62852;SDS011;49205;44.868;38.140;2023-02-11T12:03:19;16.27;;;8.53;;
62852;SDS011;49205;44.868;38.140;2023-02-11T12:16:52;19.65;;;10.13;;
62852;SDS011;49205;44.868;38.140;2023-02-11T12:19:42;16.17;;;9.08;;
62852;SDS011;49205;44.868;38.140;2023-02-11T12:22:20;13.60;;;7.97;;
62852;SDS011;49205;44.868;38.140;2023-02-11T12:27:42;17.25;;;10.23;;
62852;SDS011;49205;44.868;38.140;2023-02-11T12:35:28;18.02;;;10.40;;
62852;SDS011;49205;44.868;38.140;2023-02-11T12:40:45;13.93;;;8.08;;
62852;SDS011;49205;44.868;38.140;2023-02-11T12:48:42;19.67;;;10.58;;
62852;SDS011;49205;44.868;38.140;2023-02-11T12:57:14;22.15;;;10.28;;
62852;SDS011;49205;44.868;38.140;2023-02-11T13:02:33;15.90;;;8.88;;
62852;SDS011;49205;44.868;38.140;2023-02-11T13:05:22;14.05;;;7.53;;
62852;SDS011;49205;44.868;38.140;2023-02-11T13:08:24;15.75;;;8.73;;
62852;SDS011;49205;44.868;38.140;2023-02-11T13:10:49;14.98;;;7.83;;
62852;SDS011;49205;44.868;38.140;2023-02-11T13:13:24;11.08;;;5.92;;
62852;SDS011;49205;44.868;38.140;2023-02-11T13:15:55;14.18;;;7.78;;
62852;SDS011;49205;44.868;38.140;2023-02-11T13:18:53;6.78;;;4.50;;
62852;SDS011;49205;44.868;38.140;2023-02-11T13:24:18;10.70;;;6.92;;
62852;SDS011;49205;44.868;38.140;2023-02-11T13:29:56;15.53;;;8.05;;
62852;SDS011;49205;44.868;38.140;2023-02-11T13:37:59;13.03;;;8.20;;
62852;SDS011;49205;44.868;38.140;2023-02-11T13:40:36;11.20;;;6.60;;
62852;SDS011;49205;44.868;38.140;2023-02-11T13:43:17;16.45;;;8.90;;
62852;SDS011;49205;44.868;38.140;2023-02-11T13:50:59;15.13;;;8.78;;
62852;SDS011;49205;44.868;38.140;2023-02-11T13:53:42;16.62;;;9.58;;
62852;SDS011;49205;44.868;38.140;2023-02-11T13:56:29;17.45;;;9.60;;
62852;SDS011;49205;44.868;38.140;2023-02-11T14:11:03;22.13;;;11.48;;
62852;SDS011;49205;44.868;38.140;2023-02-11T14:13:31;22.87;;;11.43;;
62852;SDS011;49205;44.868;38.140;2023-02-11T14:16:06;21.00;;;10.38;;
62852;SDS011;49205;44.868;38.140;2023-02-11T14:34:55;20.35;;;13.28;;
62852;SDS011;49205;44.868;38.140;2023-02-11T14:43:09;19.57;;;11.38;;
62852;SDS011;49205;44.868;38.140;2023-02-11T14:45:33;24.85;;;13.08;;
62852;SDS011;49205;44.868;38.140;2023-02-11T14:48:17;22.22;;;13.68;;
62852;SDS011;49205;44.868;38.140;2023-02-11T14:50:48;24.75;;;13.58;;
62852;SDS011;49205;44.868;38.140;2023-02-11T14:53:34;31.97;;;16.70;;
62852;SDS011;49205;44.868;38.140;2023-02-11T14:56:09;32.00;;;16.80;;
62852;SDS011;49205;44.868;38.140;2023-02-11T14:58:36;29.23;;;16.35;;
62852;SDS011;49205;44.868;38.140;2023-02-11T15:01:21;31.57;;;16.65;;
62852;SDS011;49205;44.868;38.140;2023-02-11T15:03:54;30.80;;;15.93;;
62852;SDS011;49205;44.868;38.140;2023-02-11T15:06:30;31.82;;;16.20;;
62852;SDS011;49205;44.868;38.140;2023-02-11T15:09:03;33.05;;;18.05;;
62852;SDS011;49205;44.868;38.140;2023-02-11T15:11:36;36.17;;;19.00;;
62852;SDS011;49205;44.868;38.140;2023-02-11T15:14:18;29.77;;;16.87;;
62852;SDS011;49205;44.868;38.140;2023-02-11T15:16:58;26.12;;;15.40;;
62852;SDS011;49205;44.868;38.140;2023-02-11T15:19:32;26.15;;;15.28;;
62852;SDS011;49205;44.868;38.140;2023-02-11T15:22:15;27.37;;;14.90;;
62852;SDS011;49205;44.868;38.140;2023-02-11T15:24:57;28.02;;;16.05;;
62852;SDS011;49205;44.868;38.140;2023-02-11T15:27:36;35.35;;;24.25;;
62852;SDS011;49205;44.868;38.140;2023-02-11T15:30:23;25.55;;;15.13;;
62852;SDS011;49205;44.868;38.140;2023-02-11T15:32:57;29.87;;;14.70;;
62852;SDS011;49205;44.868;38.140;2023-02-11T15:35:30;40.23;;;18.30;;
62852;SDS011;49205;44.868;38.140;2023-02-11T15:38:02;35.17;;;16.12;;
62852;SDS011;49205;44.868;38.140;2023-02-11T15:40:33;34.58;;;18.25;;
62852;SDS011;49205;44.868;38.140;2023-02-11T15:43:07;40.17;;;21.15;;
62852;SDS011;49205;44.868;38.140;2023-02-11T15:45:41;39.25;;;22.37;;
62852;SDS011;49205;44.868;38.140;2023-02-11T15:48:12;39.95;;;21.12;;
62852;SDS011;49205;44.868;38.140;2023-02-11T15:50:52;34.73;;;19.45;;
62852;SDS011;49205;44.868;38.140;2023-02-11T15:53:22;36.73;;;18.45;;
62852;SDS011;49205;44.868;38.140;2023-02-11T15:55:57;45.38;;;21.30;;
62852;SDS011;49205;44.868;38.140;2023-02-11T15:58:27;39.20;;;20.45;;
62852;SDS011;49205;44.868;38.140;2023-02-11T16:00:56;41.05;;;19.17;;
62852;SDS011;49205;44.868;38.140;2023-02-11T16:03:33;33.78;;;18.52;;
62852;SDS011;49205;44.868;38.140;2023-02-11T16:06:17;42.85;;;18.42;;
62852;SDS011;49205;44.868;38.140;2023-02-11T16:09:01;53.52;;;28.20;;
62852;SDS011;49205;44.868;38.140;2023-02-11T16:11:50;54.38;;;28.70;;
62852;SDS011;49205;44.868;38.140;2023-02-11T16:14:27;53.55;;;29.12;;
62852;SDS011;49205;44.868;38.140;2023-02-11T16:17:02;48.68;;;28.10;;
62852;SDS011;49205;44.868;38.140;2023-02-11T16:19:41;44.58;;;23.80;;
62852;SDS011;49205;44.868;38.140;2023-02-11T16:22:26;38.45;;;21.45;;
62852;SDS011;49205;44.868;38.140;2023-02-11T16:24:58;43.60;;;22.37;;
62852;SDS011;49205;44.868;38.140;2023-02-11T16:27:33;37.05;;;21.50;;
62852;SDS011;49205;44.868;38.140;2023-02-11T16:29:59;40.92;;;22.20;;
62852;SDS011;49205;44.868;38.140;2023-02-11T16:32:29;44.67;;;22.13;;
62852;SDS011;49205;44.868;38.140;2023-02-11T16:34:58;33.53;;;18.75;;
62852;SDS011;49205;44.868;38.140;2023-02-11T16:37:27;39.00;;;21.75;;
62852;SDS011;49205;44.868;38.140;2023-02-11T16:39:57;44.98;;;21.05;;
62852;SDS011;49205;44.868;38.140;2023-02-11T16:42:26;50.05;;;21.40;;
62852;SDS011;49205;44.868;38.140;2023-02-11T16:44:55;47.30;;;18.52;;
62852;SDS011;49205;44.868;38.140;2023-02-11T16:47:26;39.90;;;21.40;;
62852;SDS011;49205;44.868;38.140;2023-02-11T16:49:56;43.25;;;19.05;;
62852;SDS011;49205;44.868;38.140;2023-02-11T16:52:27;34.75;;;17.48;;
62852;SDS011;49205;44.868;38.140;2023-02-11T16:54:57;31.25;;;16.30;;
62852;SDS011;49205;44.868;38.140;2023-02-11T16:57:26;34.90;;;17.37;;
62852;SDS011;49205;44.868;38.140;2023-02-11T16:59:56;43.13;;;20.15;;
62852;SDS011;49205;44.868;38.140;2023-02-11T17:02:30;36.55;;;17.32;;
62852;SDS011;49205;44.868;38.140;2023-02-11T17:05:04;34.65;;;19.02;;
62852;SDS011;49205;44.868;38.140;2023-02-11T17:07:35;38.80;;;20.30;;
62852;SDS011;49205;44.868;38.140;2023-02-11T17:10:12;30.57;;;19.37;;
62852;SDS011;49205;44.868;38.140;2023-02-11T17:12:46;31.15;;;19.15;;
62852;SDS011;49205;44.868;38.140;2023-02-11T17:15:17;30.25;;;18.12;;
62852;SDS011;49205;44.868;38.140;2023-02-11T17:17:46;25.90;;;15.43;;
62852;SDS011;49205;44.868;38.140;2023-02-11T17:20:16;25.15;;;13.53;;
62852;SDS011;49205;44.868;38.140;2023-02-11T17:22:46;25.27;;;14.50;;
62852;SDS011;49205;44.868;38.140;2023-02-11T17:25:15;25.12;;;14.47;;
62852;SDS011;49205;44.868;38.140;2023-02-11T17:27:45;27.67;;;15.28;;
62852;SDS011;49205;44.868;38.140;2023-02-11T17:30:14;26.82;;;14.33;;
62852;SDS011;49205;44.868;38.140;2023-02-11T17:32:43;39.35;;;18.15;;
62852;SDS011;49205;44.868;38.140;2023-02-11T17:35:13;24.37;;;16.32;;
62852;SDS011;49205;44.868;38.140;2023-02-11T17:37:42;30.92;;;18.10;;
62852;SDS011;49205;44.868;38.140;2023-02-11T17:40:12;35.95;;;18.95;;
62852;SDS011;49205;44.868;38.140;2023-02-11T17:42:42;37.08;;;20.92;;
62852;SDS011;49205;44.868;38.140;2023-02-11T17:45:11;38.23;;;20.27;;
62852;SDS011;49205;44.868;38.140;2023-02-11T17:47:40;33.38;;;18.50;;
62852;SDS011;49205;44.868;38.140;2023-02-11T17:50:10;39.03;;;21.05;;
62852;SDS011;49205;44.868;38.140;2023-02-11T17:52:39;36.42;;;21.30;;
62852;SDS011;49205;44.868;38.140;2023-02-11T17:55:09;38.23;;;21.17;;
62852;SDS011;49205;44.868;38.140;2023-02-11T17:57:38;32.65;;;18.80;;
62852;SDS011;49205;44.868;38.140;2023-02-11T18:00:07;34.03;;;18.25;;
62852;SDS011;49205;44.868;38.140;2023-02-11T18:02:39;32.53;;;18.87;;
62852;SDS011;49205;44.868;38.140;2023-02-11T18:05:08;30.27;;;16.27;;
62852;SDS011;49205;44.868;38.140;2023-02-11T18:07:37;37.73;;;19.32;;
62852;SDS011;49205;44.868;38.140;2023-02-11T18:10:07;35.80;;;20.10;;
62852;SDS011;49205;44.868;38.140;2023-02-11T18:12:37;28.40;;;17.27;;
62852;SDS011;49205;44.868;38.140;2023-02-11T18:15:06;36.23;;;18.32;;
62852;SDS011;49205;44.868;38.140;2023-02-11T18:17:35;35.30;;;17.00;;
62852;SDS011;49205;44.868;38.140;2023-02-11T18:20:04;27.15;;;14.68;;
62852;SDS011;49205;44.868;38.140;2023-02-11T18:22:36;30.75;;;16.70;;
62852;SDS011;49205;44.868;38.140;2023-02-11T18:25:07;26.93;;;14.45;;
62852;SDS011;49205;44.868;38.140;2023-02-11T18:27:37;29.20;;;15.55;;
62852;SDS011;49205;44.868;38.140;2023-02-11T18:30:07;27.62;;;15.53;;
62852;SDS011;49205;44.868;38.140;2023-02-11T18:32:37;35.17;;;15.65;;
62852;SDS011;49205;44.868;38.140;2023-02-11T18:35:08;27.50;;;15.03;;
62852;SDS011;49205;44.868;38.140;2023-02-11T18:37:40;29.48;;;16.32;;
62852;SDS011;49205;44.868;38.140;2023-02-11T18:40:09;27.37;;;15.65;;
62852;SDS011;49205;44.868;38.140;2023-02-11T18:42:39;26.40;;;15.80;;
62852;SDS011;49205;44.868;38.140;2023-02-11T18:45:09;26.37;;;15.38;;
62852;SDS011;49205;44.868;38.140;2023-02-11T18:47:41;24.67;;;14.07;;
62852;SDS011;49205;44.868;38.140;2023-02-11T18:50:10;30.57;;;16.73;;
62852;SDS011;49205;44.868;38.140;2023-02-11T18:52:41;27.60;;;15.32;;
62852;SDS011;49205;44.868;38.140;2023-02-11T18:55:10;29.90;;;15.00;;
62852;SDS011;49205;44.868;38.140;2023-02-11T18:57:39;34.43;;;16.35;;
62852;SDS011;49205;44.868;38.140;2023-02-11T19:00:09;25.75;;;16.05;;
62852;SDS011;49205;44.868;38.140;2023-02-11T19:02:38;24.15;;;15.75;;
62852;SDS011;49205;44.868;38.140;2023-02-11T19:05:08;30.50;;;15.60;;
62852;SDS011;49205;44.868;38.140;2023-02-11T19:07:37;22.45;;;13.00;;
62852;SDS011;49205;44.868;38.140;2023-02-11T19:10:07;23.52;;;13.80;;
62852;SDS011;49205;44.868;38.140;2023-02-11T19:12:38;26.93;;;14.90;;
62852;SDS011;49205;44.868;38.140;2023-02-11T19:15:09;30.90;;;16.12;;
62852;SDS011;49205;44.868;38.140;2023-02-11T19:17:43;29.27;;;15.55;;
62852;SDS011;49205;44.868;38.140;2023-02-11T19:20:10;30.00;;;16.55;;
62852;SDS011;49205;44.868;38.140;2023-02-11T19:22:39;24.12;;;14.68;;
62852;SDS011;49205;44.868;38.140;2023-02-11T19:25:08;29.65;;;15.60;;
62852;SDS011;49205;44.868;38.140;2023-02-11T19:27:38;31.57;;;17.02;;
62852;SDS011;49205;44.868;38.140;2023-02-11T19:30:08;25.85;;;15.23;;
62852;SDS011;49205;44.868;38.140;2023-02-11T19:32:37;31.42;;;15.08;;
62852;SDS011;49205;44.868;38.140;2023-02-11T19:35:06;26.65;;;15.60;;
62852;SDS011;49205;44.868;38.140;2023-02-11T19:37:36;41.98;;;20.32;;
62852;SDS011;49205;44.868;38.140;2023-02-11T19:40:05;42.38;;;21.33;;
62852;SDS011;49205;44.868;38.140;2023-02-11T19:42:34;39.90;;;19.85;;
62852;SDS011;49205;44.868;38.140;2023-02-11T19:45:04;40.65;;;20.70;;
62852;SDS011;49205;44.868;38.140;2023-02-11T19:47:33;47.75;;;23.38;;
62852;SDS011;49205;44.868;38.140;2023-02-11T19:50:05;50.03;;;24.77;;
62852;SDS011;49205;44.868;38.140;2023-02-11T19:52:38;42.20;;;23.18;;
62852;SDS011;49205;44.868;38.140;2023-02-11T19:55:07;44.88;;;23.30;;
62852;SDS011;49205;44.868;38.140;2023-02-11T19:57:36;47.30;;;23.30;;
62852;SDS011;49205;44.868;38.140;2023-02-11T20:00:06;41.08;;;22.40;;
62852;SDS011;49205;44.868;38.140;2023-02-11T20:02:38;54.50;;;24.90;;
62852;SDS011;49205;44.868;38.140;2023-02-11T20:05:07;45.23;;;24.80;;
62852;SDS011;49205;44.868;38.140;2023-02-11T20:07:36;40.95;;;22.95;;
62852;SDS011;49205;44.868;38.140;2023-02-11T20:10:05;32.80;;;19.35;;
62852;SDS011;49205;44.868;38.140;2023-02-11T20:12:36;32.03;;;16.85;;
62852;SDS011;49205;44.868;38.140;2023-02-11T20:15:05;33.65;;;15.75;;
62852;SDS011;49205;44.868;38.140;2023-02-11T20:17:34;29.55;;;14.83;;
62852;SDS011;49205;44.868;38.140;2023-02-11T20:20:03;28.67;;;14.80;;
62852;SDS011;49205;44.868;38.140;2023-02-11T20:22:33;29.45;;;14.65;;
62852;SDS011;49205;44.868;38.140;2023-02-11T20:25:02;25.57;;;15.32;;
62852;SDS011;49205;44.868;38.140;2023-02-11T20:27:32;27.87;;;15.93;;
62852;SDS011;49205;44.868;38.140;2023-02-11T20:30:01;29.12;;;15.10;;
62852;SDS011;49205;44.868;38.140;2023-02-11T20:32:30;25.57;;;15.50;;
62852;SDS011;49205;44.868;38.140;2023-02-11T20:35:01;26.45;;;15.65;;
62852;SDS011;49205;44.868;38.140;2023-02-11T20:37:30;32.17;;;15.10;;
62852;SDS011;49205;44.868;38.140;2023-02-11T20:40:00;28.60;;;14.83;;
62852;SDS011;49205;44.868;38.140;2023-02-11T20:42:29;23.32;;;14.47;;
62852;SDS011;49205;44.868;38.140;2023-02-11T20:44:58;28.83;;;15.50;;
62852;SDS011;49205;44.868;38.140;2023-02-11T20:47:27;26.93;;;14.05;;
62852;SDS011;49205;44.868;38.140;2023-02-11T20:49:56;30.12;;;14.18;;
62852;SDS011;49205;44.868;38.140;2023-02-11T20:52:25;22.50;;;13.78;;
62852;SDS011;49205;44.868;38.140;2023-02-11T20:54:54;20.97;;;12.15;;
62852;SDS011;49205;44.868;38.140;2023-02-11T20:57:24;25.20;;;15.40;;
62852;SDS011;49205;44.868;38.140;2023-02-11T20:59:53;22.22;;;12.05;;
62852;SDS011;49205;44.868;38.140;2023-02-11T21:02:27;18.50;;;10.40;;
62852;SDS011;49205;44.868;38.140;2023-02-11T21:04:52;19.50;;;11.12;;
62852;SDS011;49205;44.868;38.140;2023-02-11T21:07:21;22.50;;;11.30;;
62852;SDS011;49205;44.868;38.140;2023-02-11T21:09:52;21.30;;;10.95;;
62852;SDS011;49205;44.868;38.140;2023-02-11T21:12:21;13.20;;;9.33;;
62852;SDS011;49205;44.868;38.140;2023-02-11T21:14:50;21.60;;;11.45;;
62852;SDS011;49205;44.868;38.140;2023-02-11T21:17:20;22.70;;;11.33;;
62852;SDS011;49205;44.868;38.140;2023-02-11T21:19:51;20.82;;;11.93;;
62852;SDS011;49205;44.868;38.140;2023-02-11T21:22:20;17.42;;;10.10;;
62852;SDS011;49205;44.868;38.140;2023-02-11T21:24:49;21.68;;;10.13;;
62852;SDS011;49205;44.868;38.140;2023-02-11T21:27:18;20.75;;;12.28;;
62852;SDS011;49205;44.868;38.140;2023-02-11T21:29:48;18.10;;;10.38;;
62852;SDS011;49205;44.868;38.140;2023-02-11T21:32:17;25.40;;;11.10;;
62852;SDS011;49205;44.868;38.140;2023-02-11T21:34:46;20.70;;;10.32;;
62852;SDS011;49205;44.868;38.140;2023-02-11T21:37:15;21.42;;;11.15;;
62852;SDS011;49205;44.868;38.140;2023-02-11T21:39:44;21.60;;;11.55;;